Time,TemperatureF,DewpointF,PressureIn,WindDirection,WindDirectionDegrees,WindSpeedMPH,WindSpeedGustMPH,Humidity,HourlyPrecipIn,Conditions,Clouds,dailyrainin,SolarRadiationWatts/m^2,SoftwareType,DateUTC
2013-01-16 00:32:00,41.0,10.0,-100.00,North,355,0.0,4.0,28,0.00,,,0.05,0.000000,,2013-01-16 08:32:00,
2013-01-16 01:33:00,41.0,9.0,-100.00,NW,310,0.0,4.0,26,0.00,,,0.05,0.000000,,2013-01-16 09:33:00,
2013-01-16 02:32:00,42.0,11.0,-100.00,North,353,1.0,3.0,28,0.00,,,0.05,0.000000,,2013-01-16 10:32:00,
2013-01-16 03:33:00,42.0,10.0,-100.00,North,356,0.0,4.0,26,0.00,,,0.05,0.000000,,2013-01-16 11:33:00,
2013-01-16 04:33:00,42.0,8.0,-100.00,NNE,29,0.0,4.0,24,0.00,,,0.05,0.000000,,2013-01-16 12:33:00,
2013-01-16 05:33:00,41.0,6.0,-100.00,North,349,0.0,3.0,23,-99.99,,,0.05,0.000000,,2013-01-16 13:33:00,
2013-01-16 06:33:00,41.0,7.0,-100.00,NNE,23,0.0,3.0,24,0.00,,,0.05,0.000000,,2013-01-16 14:33:00,
2013-01-16 07:33:00,39.0,9.0,-100.00,WSW,245,0.0,3.0,29,0.00,,,0.05,0.000000,,2013-01-16 15:33:00,
2013-01-16 08:33:00,38.0,9.0,-100.00,NNW,331,0.0,4.0,30,0.00,,,0.05,2.000000,,2013-01-16 16:33:00,
2013-01-16 09:02:00,38.0,9.0,-100.00,NNW,331,0.0,4.0,30,0.00,,,0.05,2.000000,,2013-01-16 17:02:00,
2013-01-16 09:33:00,47.0,16.0,-100.00,South,173,0.0,4.0,29,0.00,,,0.05,94.000000,,2013-01-16 17:33:00,
2013-01-16 10:33:00,55.0,14.0,-100.00,SSE,152,0.0,0.0,19,-99.99,,,0.05,279.000000,,2013-01-16 18:33:00,
2013-01-16 11:33:00,54.0,16.0,-100.00,South,189,2.0,4.0,22,-99.99,,,0.05,396.000000,,2013-01-16 19:33:00,
2013-01-16 12:33:00,61.0,20.0,-100.00,SSW,198,0.0,7.0,20,-99.99,,,0.05,460.000000,,2013-01-16 20:33:00,
2013-01-16 13:33:00,55.0,20.0,-100.00,SSE,150,3.0,5.0,25,-99.99,,,0.05,463.000000,,2013-01-16 21:33:00,
2013-01-16 14:33:00,58.0,22.0,-100.00,SE,124,0.0,6.0,25,-99.99,,,0.05,407.000000,,2013-01-16 22:33:00,
2013-01-16 15:33:00,52.0,25.0,-100.00,SSW,193,1.0,5.0,34,-99.99,,,0.06,301.000000,,2013-01-16 23:33:00,
2013-01-16 16:33:00,48.0,24.0,-100.00,SSW,198,0.0,6.0,39,-99.99,,,0.05,153.000000,,2013-01-17 00:33:00,
2013-01-16 17:33:00,44.0,27.0,-100.00,NNW,346,0.0,5.0,50,-99.99,,,0.06,11.000000,,2013-01-17 01:33:00,
2013-01-16 18:32:00,40.0,26.0,-100.00,NNE,15,0.0,4.0,57,-99.99,,,0.06,0.000000,,2013-01-17 02:32:00,
2013-01-16 18:43:00,40.0,26.0,-100.00,NNE,15,0.0,4.0,57,-99.99,,,0.06,0.000000,,2013-01-17 02:43:00,
2013-01-16 18:52:00,40.0,26.0,-100.00,NNE,15,0.0,4.0,57,-99.99,,,0.06,0.000000,,2013-01-17 02:52:00,
2013-01-16 19:33:00,37.0,27.0,-100.00,North,354,0.0,0.0,66,0.00,,,0.06,0.000000,,2013-01-17 03:33:00,
2013-01-16 19:43:00,37.0,27.0,-100.00,North,354,0.0,0.0,66,0.00,,,0.06,0.000000,,2013-01-17 03:43:00,
2013-01-16 19:52:00,37.0,27.0,-100.00,North,354,0.0,0.0,66,0.00,,,0.06,0.000000,,2013-01-17 03:52:00,
2013-01-16 20:02:00,37.0,27.0,-100.00,North,354,0.0,0.0,66,0.00,,,0.06,0.000000,,2013-01-17 04:02:00,
2013-01-16 20:33:00,33.0,26.0,-100.00,SSW,208,0.0,2.0,74,0.00,,,0.06,0.000000,,2013-01-17 04:33:00,
2013-01-16 20:43:00,33.0,26.0,-100.00,SSW,208,0.0,2.0,74,0.00,,,0.06,0.000000,,2013-01-17 04:43:00,
2013-01-16 20:52:00,33.0,26.0,-100.00,SSW,208,0.0,2.0,74,0.00,,,0.06,0.000000,,2013-01-17 04:52:00,
2013-01-16 21:03:00,33.0,26.0,-100.00,SSW,208,0.0,2.0,74,0.00,,,0.06,0.000000,,2013-01-17 05:03:00,
2013-01-16 21:33:00,33.0,27.0,-100.00,NNE,20,0.0,0.0,79,0.00,,,0.06,0.000000,,2013-01-17 05:33:00,
2013-01-16 21:43:00,33.0,27.0,-100.00,NNE,20,0.0,0.0,79,0.00,,,0.06,0.000000,,2013-01-17 05:43:00,
2013-01-16 21:53:00,33.0,27.0,-100.00,NNE,20,0.0,0.0,79,0.00,,,0.06,0.000000,,2013-01-17 05:53:00,
2013-01-16 22:02:00,33.0,27.0,-100.00,NNE,20,0.0,0.0,79,0.00,,,0.06,0.000000,,2013-01-17 06:02:00,
2013-01-16 22:33:00,30.0,26.0,-100.00,SSE,164,0.0,0.0,84,0.00,,,0.06,0.000000,,2013-01-17 06:33:00,
2013-01-16 22:42:00,30.0,26.0,-100.00,SSE,164,0.0,0.0,84,0.00,,,0.06,0.000000,,2013-01-17 06:42:00,
2013-01-16 22:52:00,30.0,26.0,-100.00,SSE,164,0.0,0.0,84,0.00,,,0.06,0.000000,,2013-01-17 06:52:00,
2013-01-16 23:02:00,30.0,26.0,-100.00,SSE,164,0.0,0.0,84,0.00,,,0.06,0.000000,,2013-01-17 07:02:00,
2013-01-16 23:33:00,27.0,24.0,-100.00,NE,38,0.0,4.0,90,0.00,,,0.06,0.000000,,2013-01-17 07:33:00,
2013-01-16 23:42:00,27.0,24.0,-100.00,NE,38,0.0,4.0,90,0.00,,,0.06,0.000000,,2013-01-17 07:42:00,
2013-01-16 23:52:00,27.0,24.0,-100.00,NE,38,0.0,4.0,90,0.00,,,0.06,0.000000,,2013-01-17 07:52:00,